sensor_id;sensor_type;location;lat;lon;timestamp;P1;durP1;ratioP1;P2;durP2;ratioP2
21860;SDS011;11095;48.066;8.540;2022-10-16T00:01:16;3.17;;;2.80;;
21860;SDS011;11095;48.066;8.540;2022-10-16T00:03:43;2.60;;;2.30;;
21860;SDS011;11095;48.066;8.540;2022-10-16T00:06:10;2.83;;;2.17;;
21860;SDS011;11095;48.066;8.540;2022-10-16T00:08:37;2.63;;;2.30;;
21860;SDS011;11095;48.066;8.540;2022-10-16T00:11:07;2.40;;;2.20;;
21860;SDS011;11095;48.066;8.540;2022-10-16T00:13:35;2.97;;;2.40;;
21860;SDS011;11095;48.066;8.540;2022-10-16T00:16:02;2.50;;;2.15;;
21860;SDS011;11095;48.066;8.540;2022-10-16T00:18:29;2.67;;;2.17;;
21860;SDS011;11095;48.066;8.540;2022-10-16T00:20:55;2.65;;;2.05;;
21860;SDS011;11095;48.066;8.540;2022-10-16T00:23:26;3.03;;;2.50;;
21860;SDS011;11095;48.066;8.540;2022-10-16T00:25:55;2.97;;;2.38;;
21860;SDS011;11095;48.066;8.540;2022-10-16T00:28:25;4.30;;;2.40;;
21860;SDS011;11095;48.066;8.540;2022-10-16T00:30:52;3.45;;;2.50;;
21860;SDS011;11095;48.066;8.540;2022-10-16T00:33:18;3.35;;;2.35;;
21860;SDS011;11095;48.066;8.540;2022-10-16T00:35:44;2.92;;;2.63;;
21860;SDS011;11095;48.066;8.540;2022-10-16T00:38:10;3.92;;;2.30;;
21860;SDS011;11095;48.066;8.540;2022-10-16T00:40:36;4.32;;;3.17;;
21860;SDS011;11095;48.066;8.540;2022-10-16T00:43:02;4.70;;;2.92;;
21860;SDS011;11095;48.066;8.540;2022-10-16T00:45:28;3.95;;;3.22;;
21860;SDS011;11095;48.066;8.540;2022-10-16T00:47:54;5.47;;;3.13;;
21860;SDS011;11095;48.066;8.540;2022-10-16T00:50:31;3.40;;;2.80;;
21860;SDS011;11095;48.066;8.540;2022-10-16T00:52:59;4.10;;;3.45;;
21860;SDS011;11095;48.066;8.540;2022-10-16T00:55:26;6.30;;;2.75;;
21860;SDS011;11095;48.066;8.540;2022-10-16T00:57:55;4.70;;;3.10;;
21860;SDS011;11095;48.066;8.540;2022-10-16T01:00:23;3.20;;;2.70;;
21860;SDS011;11095;48.066;8.540;2022-10-16T01:02:54;5.43;;;3.27;;
21860;SDS011;11095;48.066;8.540;2022-10-16T01:05:22;5.30;;;3.03;;
21860;SDS011;11095;48.066;8.540;2022-10-16T01:08:04;5.00;;;2.33;;
21860;SDS011;11095;48.066;8.540;2022-10-16T01:10:45;5.03;;;2.53;;
21860;SDS011;11095;48.066;8.540;2022-10-16T01:13:54;3.97;;;3.00;;
21860;SDS011;11095;48.066;8.540;2022-10-16T01:16:38;3.92;;;2.70;;
21860;SDS011;11095;48.066;8.540;2022-10-16T01:21:57;3.47;;;2.55;;
21860;SDS011;11095;48.066;8.540;2022-10-16T01:27:05;4.95;;;3.10;;
21860;SDS011;11095;48.066;8.540;2022-10-16T01:33:07;3.50;;;3.00;;
21860;SDS011;11095;48.066;8.540;2022-10-16T01:35:43;4.05;;;2.90;;
21860;SDS011;11095;48.066;8.540;2022-10-16T01:38:17;4.85;;;3.33;;
21860;SDS011;11095;48.066;8.540;2022-10-16T01:40:49;4.32;;;3.65;;
21860;SDS011;11095;48.066;8.540;2022-10-16T01:43:25;3.58;;;2.90;;
21860;SDS011;11095;48.066;8.540;2022-10-16T01:45:56;3.72;;;2.63;;
21860;SDS011;11095;48.066;8.540;2022-10-16T01:48:23;3.53;;;2.90;;
21860;SDS011;11095;48.066;8.540;2022-10-16T01:50:57;5.63;;;3.15;;
21860;SDS011;11095;48.066;8.540;2022-10-16T01:53:27;3.03;;;2.72;;
21860;SDS011;11095;48.066;8.540;2022-10-16T01:55:54;3.63;;;3.00;;
21860;SDS011;11095;48.066;8.540;2022-10-16T01:58:23;7.07;;;3.80;;
21860;SDS011;11095;48.066;8.540;2022-10-16T02:00:50;4.95;;;3.45;;
21860;SDS011;11095;48.066;8.540;2022-10-16T02:03:18;4.57;;;3.38;;
21860;SDS011;11095;48.066;8.540;2022-10-16T02:05:46;4.53;;;2.80;;
21860;SDS011;11095;48.066;8.540;2022-10-16T02:08:16;3.75;;;3.20;;
21860;SDS011;11095;48.066;8.540;2022-10-16T02:10:42;4.70;;;3.05;;
21860;SDS011;11095;48.066;8.540;2022-10-16T02:13:09;3.30;;;2.80;;
21860;SDS011;11095;48.066;8.540;2022-10-16T02:15:45;3.67;;;2.80;;
21860;SDS011;11095;48.066;8.540;2022-10-16T02:18:10;3.85;;;2.72;;
21860;SDS011;11095;48.066;8.540;2022-10-16T02:20:40;3.97;;;2.80;;
21860;SDS011;11095;48.066;8.540;2022-10-16T02:23:36;3.88;;;2.55;;
21860;SDS011;11095;48.066;8.540;2022-10-16T02:26:10;4.50;;;2.58;;
21860;SDS011;11095;48.066;8.540;2022-10-16T02:28:42;2.80;;;2.47;;
21860;SDS011;11095;48.066;8.540;2022-10-16T02:31:12;3.10;;;2.58;;
21860;SDS011;11095;48.066;8.540;2022-10-16T02:33:43;3.17;;;2.85;;
21860;SDS011;11095;48.066;8.540;2022-10-16T02:36:10;3.00;;;2.47;;
21860;SDS011;11095;48.066;8.540;2022-10-16T02:38:36;2.65;;;2.33;;
21860;SDS011;11095;48.066;8.540;2022-10-16T02:41:04;3.35;;;2.80;;
21860;SDS011;11095;48.066;8.540;2022-10-16T02:43:29;5.05;;;2.70;;
21860;SDS011;11095;48.066;8.540;2022-10-16T02:45:55;3.90;;;2.72;;
21860;SDS011;11095;48.066;8.540;2022-10-16T02:48:21;3.17;;;2.75;;
21860;SDS011;11095;48.066;8.540;2022-10-16T02:50:46;5.53;;;2.88;;
21860;SDS011;11095;48.066;8.540;2022-10-16T02:53:12;2.97;;;2.60;;
21860;SDS011;11095;48.066;8.540;2022-10-16T02:55:37;3.55;;;2.75;;
21860;SDS011;11095;48.066;8.540;2022-10-16T02:58:03;3.05;;;2.75;;
21860;SDS011;11095;48.066;8.540;2022-10-16T03:00:29;4.30;;;3.20;;
21860;SDS011;11095;48.066;8.540;2022-10-16T03:02:54;3.63;;;2.90;;
21860;SDS011;11095;48.066;8.540;2022-10-16T03:05:20;4.53;;;3.05;;
21860;SDS011;11095;48.066;8.540;2022-10-16T03:07:46;4.03;;;3.17;;
21860;SDS011;11095;48.066;8.540;2022-10-16T03:10:11;4.43;;;3.28;;
21860;SDS011;11095;48.066;8.540;2022-10-16T03:12:37;3.20;;;2.90;;
21860;SDS011;11095;48.066;8.540;2022-10-16T03:15:03;4.03;;;3.10;;
21860;SDS011;11095;48.066;8.540;2022-10-16T03:17:29;3.90;;;3.40;;
21860;SDS011;11095;48.066;8.540;2022-10-16T03:19:54;4.20;;;3.28;;
21860;SDS011;11095;48.066;8.540;2022-10-16T03:22:20;4.68;;;3.40;;
21860;SDS011;11095;48.066;8.540;2022-10-16T03:24:46;5.68;;;3.53;;
21860;SDS011;11095;48.066;8.540;2022-10-16T03:27:11;4.43;;;3.47;;
21860;SDS011;11095;48.066;8.540;2022-10-16T03:29:37;4.22;;;3.25;;
21860;SDS011;11095;48.066;8.540;2022-10-16T03:32:02;4.72;;;3.72;;
21860;SDS011;11095;48.066;8.540;2022-10-16T03:34:28;4.15;;;3.75;;
21860;SDS011;11095;48.066;8.540;2022-10-16T03:36:54;6.30;;;3.90;;
21860;SDS011;11095;48.066;8.540;2022-10-16T03:39:20;4.00;;;3.45;;
21860;SDS011;11095;48.066;8.540;2022-10-16T03:41:45;4.70;;;3.53;;
21860;SDS011;11095;48.066;8.540;2022-10-16T03:44:11;5.63;;;3.80;;
21860;SDS011;11095;48.066;8.540;2022-10-16T03:46:37;4.07;;;3.67;;
21860;SDS011;11095;48.066;8.540;2022-10-16T03:49:03;4.10;;;3.67;;
21860;SDS011;11095;48.066;8.540;2022-10-16T03:51:28;4.05;;;3.30;;
21860;SDS011;11095;48.066;8.540;2022-10-16T03:53:54;4.60;;;3.30;;
21860;SDS011;11095;48.066;8.540;2022-10-16T03:56:20;3.63;;;3.30;;
21860;SDS011;11095;48.066;8.540;2022-10-16T03:58:45;7.63;;;4.00;;
21860;SDS011;11095;48.066;8.540;2022-10-16T04:01:11;4.00;;;3.60;;
21860;SDS011;11095;48.066;8.540;2022-10-16T04:03:36;3.55;;;3.22;;
21860;SDS011;11095;48.066;8.540;2022-10-16T04:06:02;4.00;;;3.50;;
21860;SDS011;11095;48.066;8.540;2022-10-16T04:08:28;3.75;;;3.30;;
21860;SDS011;11095;48.066;8.540;2022-10-16T04:10:54;3.17;;;2.88;;
21860;SDS011;11095;48.066;8.540;2022-10-16T04:13:19;3.50;;;3.17;;
21860;SDS011;11095;48.066;8.540;2022-10-16T04:15:45;3.35;;;2.80;;
21860;SDS011;11095;48.066;8.540;2022-10-16T04:18:11;2.83;;;2.47;;
21860;SDS011;11095;48.066;8.540;2022-10-16T04:20:37;4.20;;;3.30;;
21860;SDS011;11095;48.066;8.540;2022-10-16T04:23:03;3.00;;;2.60;;
21860;SDS011;11095;48.066;8.540;2022-10-16T04:25:29;3.10;;;2.80;;
21860;SDS011;11095;48.066;8.540;2022-10-16T04:27:55;3.30;;;2.35;;
21860;SDS011;11095;48.066;8.540;2022-10-16T04:30:21;3.55;;;2.70;;
21860;SDS011;11095;48.066;8.540;2022-10-16T04:32:51;3.95;;;2.65;;
21860;SDS011;11095;48.066;8.540;2022-10-16T04:35:17;2.72;;;2.53;;
21860;SDS011;11095;48.066;8.540;2022-10-16T04:37:44;3.75;;;2.50;;
21860;SDS011;11095;48.066;8.540;2022-10-16T04:40:09;3.42;;;2.30;;
21860;SDS011;11095;48.066;8.540;2022-10-16T04:42:35;3.30;;;2.28;;
21860;SDS011;11095;48.066;8.540;2022-10-16T04:45:01;3.10;;;2.65;;
21860;SDS011;11095;48.066;8.540;2022-10-16T04:47:28;3.45;;;2.50;;
21860;SDS011;11095;48.066;8.540;2022-10-16T04:49:53;3.42;;;2.22;;
21860;SDS011;11095;48.066;8.540;2022-10-16T04:52:19;3.13;;;2.05;;
21860;SDS011;11095;48.066;8.540;2022-10-16T04:54:46;3.40;;;2.47;;
21860;SDS011;11095;48.066;8.540;2022-10-16T04:57:12;2.47;;;2.28;;
21860;SDS011;11095;48.066;8.540;2022-10-16T04:59:44;4.10;;;2.50;;
21860;SDS011;11095;48.066;8.540;2022-10-16T05:02:09;2.83;;;2.60;;
21860;SDS011;11095;48.066;8.540;2022-10-16T05:04:35;3.60;;;2.67;;
21860;SDS011;11095;48.066;8.540;2022-10-16T05:07:01;3.10;;;2.80;;
21860;SDS011;11095;48.066;8.540;2022-10-16T05:09:26;2.90;;;2.60;;
21860;SDS011;11095;48.066;8.540;2022-10-16T05:11:52;4.22;;;2.70;;
21860;SDS011;11095;48.066;8.540;2022-10-16T05:14:17;2.30;;;2.10;;
21860;SDS011;11095;48.066;8.540;2022-10-16T05:16:43;2.70;;;2.33;;
21860;SDS011;11095;48.066;8.540;2022-10-16T05:19:09;4.65;;;2.55;;
21860;SDS011;11095;48.066;8.540;2022-10-16T05:21:35;3.70;;;2.45;;
21860;SDS011;11095;48.066;8.540;2022-10-16T05:24:00;2.67;;;2.47;;
21860;SDS011;11095;48.066;8.540;2022-10-16T05:26:26;2.72;;;2.50;;
21860;SDS011;11095;48.066;8.540;2022-10-16T05:28:52;2.78;;;2.30;;
21860;SDS011;11095;48.066;8.540;2022-10-16T05:31:17;2.42;;;2.05;;
21860;SDS011;11095;48.066;8.540;2022-10-16T05:33:43;4.07;;;2.20;;
21860;SDS011;11095;48.066;8.540;2022-10-16T05:36:09;2.13;;;1.92;;
21860;SDS011;11095;48.066;8.540;2022-10-16T05:38:35;2.28;;;1.80;;
21860;SDS011;11095;48.066;8.540;2022-10-16T05:41:02;2.35;;;2.15;;
21860;SDS011;11095;48.066;8.540;2022-10-16T05:43:28;2.35;;;2.15;;
21860;SDS011;11095;48.066;8.540;2022-10-16T05:48:25;2.35;;;1.92;;
21860;SDS011;11095;48.066;8.540;2022-10-16T05:51:01;2.92;;;1.90;;
21860;SDS011;11095;48.066;8.540;2022-10-16T05:53:29;3.53;;;2.10;;
21860;SDS011;11095;48.066;8.540;2022-10-16T05:55:56;2.38;;;2.17;;
21860;SDS011;11095;48.066;8.540;2022-10-16T05:58:22;2.88;;;2.60;;
21860;SDS011;11095;48.066;8.540;2022-10-16T06:03:21;2.88;;;2.30;;
21860;SDS011;11095;48.066;8.540;2022-10-16T06:05:47;3.03;;;2.53;;
21860;SDS011;11095;48.066;8.540;2022-10-16T06:08:13;3.40;;;2.30;;
21860;SDS011;11095;48.066;8.540;2022-10-16T06:10:39;3.70;;;2.10;;
21860;SDS011;11095;48.066;8.540;2022-10-16T06:13:04;2.33;;;2.13;;
21860;SDS011;11095;48.066;8.540;2022-10-16T06:15:30;2.60;;;2.35;;
21860;SDS011;11095;48.066;8.540;2022-10-16T06:17:56;2.40;;;2.20;;
21860;SDS011;11095;48.066;8.540;2022-10-16T06:20:21;2.63;;;2.28;;
21860;SDS011;11095;48.066;8.540;2022-10-16T06:22:47;3.72;;;2.25;;
21860;SDS011;11095;48.066;8.540;2022-10-16T06:25:12;3.30;;;2.05;;
21860;SDS011;11095;48.066;8.540;2022-10-16T06:27:41;2.30;;;2.10;;
21860;SDS011;11095;48.066;8.540;2022-10-16T06:30:07;3.47;;;2.00;;
21860;SDS011;11095;48.066;8.540;2022-10-16T06:32:33;2.67;;;2.10;;
21860;SDS011;11095;48.066;8.540;2022-10-16T06:34:59;1.80;;;1.70;;
21860;SDS011;11095;48.066;8.540;2022-10-16T06:37:24;3.05;;;2.25;;
21860;SDS011;11095;48.066;8.540;2022-10-16T06:39:50;3.38;;;2.00;;
21860;SDS011;11095;48.066;8.540;2022-10-16T06:42:17;3.53;;;2.13;;
21860;SDS011;11095;48.066;8.540;2022-10-16T06:44:43;2.45;;;1.90;;
21860;SDS011;11095;48.066;8.540;2022-10-16T06:47:09;2.33;;;1.80;;
21860;SDS011;11095;48.066;8.540;2022-10-16T06:49:35;2.58;;;1.90;;
21860;SDS011;11095;48.066;8.540;2022-10-16T06:52:00;4.53;;;2.10;;
21860;SDS011;11095;48.066;8.540;2022-10-16T06:54:27;2.97;;;1.70;;
21860;SDS011;11095;48.066;8.540;2022-10-16T06:56:53;3.40;;;2.05;;
21860;SDS011;11095;48.066;8.540;2022-10-16T06:59:19;2.55;;;1.80;;
21860;SDS011;11095;48.066;8.540;2022-10-16T07:01:46;2.17;;;1.77;;
21860;SDS011;11095;48.066;8.540;2022-10-16T07:04:11;2.08;;;1.70;;
21860;SDS011;11095;48.066;8.540;2022-10-16T07:06:37;2.42;;;1.90;;
21860;SDS011;11095;48.066;8.540;2022-10-16T07:09:04;2.70;;;1.80;;
21860;SDS011;11095;48.066;8.540;2022-10-16T07:11:31;2.60;;;1.70;;
21860;SDS011;11095;48.066;8.540;2022-10-16T07:13:57;1.73;;;1.63;;
21860;SDS011;11095;48.066;8.540;2022-10-16T07:16:27;2.47;;;1.70;;
21860;SDS011;11095;48.066;8.540;2022-10-16T07:18:55;2.60;;;1.95;;
21860;SDS011;11095;48.066;8.540;2022-10-16T07:23:52;2.15;;;1.80;;
21860;SDS011;11095;48.066;8.540;2022-10-16T07:26:18;3.03;;;2.17;;
21860;SDS011;11095;48.066;8.540;2022-10-16T07:28:45;3.03;;;1.85;;
21860;SDS011;11095;48.066;8.540;2022-10-16T07:31:11;3.25;;;1.52;;
21860;SDS011;11095;48.066;8.540;2022-10-16T07:33:39;1.98;;;1.77;;
21860;SDS011;11095;48.066;8.540;2022-10-16T07:36:08;2.15;;;1.75;;
21860;SDS011;11095;48.066;8.540;2022-10-16T07:38:34;2.63;;;1.67;;
21860;SDS011;11095;48.066;8.540;2022-10-16T07:41:00;2.22;;;1.77;;
21860;SDS011;11095;48.066;8.540;2022-10-16T07:43:30;2.20;;;1.40;;
21860;SDS011;11095;48.066;8.540;2022-10-16T07:45:56;2.08;;;1.63;;
21860;SDS011;11095;48.066;8.540;2022-10-16T07:48:22;2.70;;;1.80;;
21860;SDS011;11095;48.066;8.540;2022-10-16T07:50:56;1.95;;;1.70;;
21860;SDS011;11095;48.066;8.540;2022-10-16T07:53:25;1.92;;;1.73;;
21860;SDS011;11095;48.066;8.540;2022-10-16T07:55:52;1.60;;;1.48;;
21860;SDS011;11095;48.066;8.540;2022-10-16T07:58:22;2.28;;;1.70;;
21860;SDS011;11095;48.066;8.540;2022-10-16T08:00:48;2.70;;;1.85;;
21860;SDS011;11095;48.066;8.540;2022-10-16T08:03:13;2.03;;;1.80;;
21860;SDS011;11095;48.066;8.540;2022-10-16T08:05:39;3.63;;;1.60;;
21860;SDS011;11095;48.066;8.540;2022-10-16T08:08:04;3.28;;;2.00;;
21860;SDS011;11095;48.066;8.540;2022-10-16T08:10:30;1.90;;;1.70;;
21860;SDS011;11095;48.066;8.540;2022-10-16T08:12:56;1.83;;;1.60;;
21860;SDS011;11095;48.066;8.540;2022-10-16T08:15:22;2.13;;;1.50;;
21860;SDS011;11095;48.066;8.540;2022-10-16T08:17:55;1.90;;;1.73;;
21860;SDS011;11095;48.066;8.540;2022-10-16T08:20:29;2.55;;;1.67;;
21860;SDS011;11095;48.066;8.540;2022-10-16T08:22:55;3.58;;;1.80;;
21860;SDS011;11095;48.066;8.540;2022-10-16T08:25:22;3.55;;;1.80;;
21860;SDS011;11095;48.066;8.540;2022-10-16T08:27:48;2.55;;;1.55;;
21860;SDS011;11095;48.066;8.540;2022-10-16T08:30:14;2.88;;;1.45;;
21860;SDS011;11095;48.066;8.540;2022-10-16T08:32:41;2.65;;;1.63;;
21860;SDS011;11095;48.066;8.540;2022-10-16T08:35:07;3.15;;;1.80;;
21860;SDS011;11095;48.066;8.540;2022-10-16T08:37:34;3.63;;;2.30;;
21860;SDS011;11095;48.066;8.540;2022-10-16T08:40:00;2.67;;;2.17;;
21860;SDS011;11095;48.066;8.540;2022-10-16T08:48:30;2.17;;;1.55;;
21860;SDS011;11095;48.066;8.540;2022-10-16T08:51:00;1.58;;;1.30;;
21860;SDS011;11095;48.066;8.540;2022-10-16T08:53:31;2.60;;;1.30;;
21860;SDS011;11095;48.066;8.540;2022-10-16T08:56:07;1.27;;;1.17;;
21860;SDS011;11095;48.066;8.540;2022-10-16T08:58:33;1.75;;;1.65;;
21860;SDS011;11095;48.066;8.540;2022-10-16T09:01:11;3.35;;;1.40;;
21860;SDS011;11095;48.066;8.540;2022-10-16T09:06:55;1.92;;;1.40;;
21860;SDS011;11095;48.066;8.540;2022-10-16T09:22:41;1.98;;;1.85;;
21860;SDS011;11095;48.066;8.540;2022-10-16T09:25:11;2.38;;;1.40;;
21860;SDS011;11095;48.066;8.540;2022-10-16T09:27:39;2.03;;;1.40;;
21860;SDS011;11095;48.066;8.540;2022-10-16T09:30:12;2.80;;;1.50;;
21860;SDS011;11095;48.066;8.540;2022-10-16T09:32:41;2.00;;;1.23;;
21860;SDS011;11095;48.066;8.540;2022-10-16T09:35:13;1.77;;;1.30;;
21860;SDS011;11095;48.066;8.540;2022-10-16T09:37:42;2.15;;;1.10;;
21860;SDS011;11095;48.066;8.540;2022-10-16T09:40:23;1.85;;;1.38;;
21860;SDS011;11095;48.066;8.540;2022-10-16T09:43:02;2.53;;;1.30;;
21860;SDS011;11095;48.066;8.540;2022-10-16T09:45:56;2.40;;;1.80;;
21860;SDS011;11095;48.066;8.540;2022-10-16T09:48:47;1.83;;;1.60;;
21860;SDS011;11095;48.066;8.540;2022-10-16T09:56:32;1.98;;;1.50;;
21860;SDS011;11095;48.066;8.540;2022-10-16T09:59:02;2.65;;;1.40;;
21860;SDS011;11095;48.066;8.540;2022-10-16T10:01:36;2.40;;;1.30;;
21860;SDS011;11095;48.066;8.540;2022-10-16T10:04:04;1.97;;;1.27;;
21860;SDS011;11095;48.066;8.540;2022-10-16T10:06:32;6.55;;;1.50;;
21860;SDS011;11095;48.066;8.540;2022-10-16T10:11:57;2.20;;;1.15;;
21860;SDS011;11095;48.066;8.540;2022-10-16T10:14:25;1.83;;;1.15;;
21860;SDS011;11095;48.066;8.540;2022-10-16T10:17:09;2.38;;;1.08;;
21860;SDS011;11095;48.066;8.540;2022-10-16T10:22:17;2.33;;;1.50;;
21860;SDS011;11095;48.066;8.540;2022-10-16T10:27:27;1.67;;;1.40;;
21860;SDS011;11095;48.066;8.540;2022-10-16T10:36:00;1.15;;;1.00;;
21860;SDS011;11095;48.066;8.540;2022-10-16T10:46:58;1.85;;;1.05;;
21860;SDS011;11095;48.066;8.540;2022-10-16T10:49:39;3.33;;;1.05;;
21860;SDS011;11095;48.066;8.540;2022-10-16T10:52:42;1.15;;;1.05;;
21860;SDS011;11095;48.066;8.540;2022-10-16T10:55:21;1.70;;;1.05;;
21860;SDS011;11095;48.066;8.540;2022-10-16T11:00:42;3.38;;;1.30;;
21860;SDS011;11095;48.066;8.540;2022-10-16T11:06:06;1.90;;;1.20;;
21860;SDS011;11095;48.066;8.540;2022-10-16T11:08:45;1.50;;;1.25;;
21860;SDS011;11095;48.066;8.540;2022-10-16T11:18:59;1.88;;;0.90;;
21860;SDS011;11095;48.066;8.540;2022-10-16T11:21:36;3.33;;;1.00;;
21860;SDS011;11095;48.066;8.540;2022-10-16T11:26:41;1.33;;;1.08;;
21860;SDS011;11095;48.066;8.540;2022-10-16T11:29:19;1.42;;;0.90;;
21860;SDS011;11095;48.066;8.540;2022-10-16T11:31:52;1.73;;;1.00;;
21860;SDS011;11095;48.066;8.540;2022-10-16T11:34:55;2.85;;;1.05;;
21860;SDS011;11095;48.066;8.540;2022-10-16T11:37:17;2.15;;;0.90;;
21860;SDS011;11095;48.066;8.540;2022-10-16T11:40:02;1.15;;;1.00;;
21860;SDS011;11095;48.066;8.540;2022-10-16T11:42:41;1.23;;;1.02;;
21860;SDS011;11095;48.066;8.540;2022-10-16T11:48:11;3.60;;;1.25;;
21860;SDS011;11095;48.066;8.540;2022-10-16T11:55:45;1.35;;;1.20;;
21860;SDS011;11095;48.066;8.540;2022-10-16T11:58:31;1.52;;;1.00;;
21860;SDS011;11095;48.066;8.540;2022-10-16T12:09:29;3.03;;;1.40;;
21860;SDS011;11095;48.066;8.540;2022-10-16T12:11:57;1.20;;;1.10;;
21860;SDS011;11095;48.066;8.540;2022-10-16T12:17:02;1.20;;;1.10;;
21860;SDS011;11095;48.066;8.540;2022-10-16T12:19:57;1.20;;;1.10;;
21860;SDS011;11095;48.066;8.540;2022-10-16T12:22:41;1.40;;;0.90;;
21860;SDS011;11095;48.066;8.540;2022-10-16T12:30:40;1.48;;;1.13;;
21860;SDS011;11095;48.066;8.540;2022-10-16T12:33:18;1.30;;;1.02;;
21860;SDS011;11095;48.066;8.540;2022-10-16T12:35:49;3.45;;;1.15;;
21860;SDS011;11095;48.066;8.540;2022-10-16T12:38:58;1.55;;;1.10;;
21860;SDS011;11095;48.066;8.540;2022-10-16T12:41:12;1.10;;;0.90;;
21860;SDS011;11095;48.066;8.540;2022-10-16T12:43:48;2.15;;;0.80;;
21860;SDS011;11095;48.066;8.540;2022-10-16T12:48:41;1.60;;;1.40;;
21860;SDS011;11095;48.066;8.540;2022-10-16T13:07:45;1.40;;;0.90;;
21860;SDS011;11095;48.066;8.540;2022-10-16T13:10:36;0.90;;;0.73;;
21860;SDS011;11095;48.066;8.540;2022-10-16T13:13:29;2.08;;;0.80;;
21860;SDS011;11095;48.066;8.540;2022-10-16T13:18:48;1.10;;;0.90;;
21860;SDS011;11095;48.066;8.540;2022-10-16T13:21:38;1.25;;;0.93;;
21860;SDS011;11095;48.066;8.540;2022-10-16T13:27:07;1.25;;;0.93;;
21860;SDS011;11095;48.066;8.540;2022-10-16T13:29:36;0.95;;;0.90;;
21860;SDS011;11095;48.066;8.540;2022-10-16T13:32:09;1.77;;;0.90;;
21860;SDS011;11095;48.066;8.540;2022-10-16T13:34:46;1.10;;;1.00;;
21860;SDS011;11095;48.066;8.540;2022-10-16T13:37:19;1.63;;;0.80;;
21860;SDS011;11095;48.066;8.540;2022-10-16T13:39:47;1.27;;;0.80;;
21860;SDS011;11095;48.066;8.540;2022-10-16T13:42:16;0.85;;;0.80;;
21860;SDS011;11095;48.066;8.540;2022-10-16T13:44:52;1.25;;;1.00;;
21860;SDS011;11095;48.066;8.540;2022-10-16T13:47:22;0.90;;;0.90;;
21860;SDS011;11095;48.066;8.540;2022-10-16T13:50:09;2.45;;;1.10;;
21860;SDS011;11095;48.066;8.540;2022-10-16T13:52:37;1.90;;;0.80;;
21860;SDS011;11095;48.066;8.540;2022-10-16T13:55:10;1.58;;;1.00;;
21860;SDS011;11095;48.066;8.540;2022-10-16T13:57:37;2.78;;;1.02;;
21860;SDS011;11095;48.066;8.540;2022-10-16T14:00:03;1.50;;;0.90;;
21860;SDS011;11095;48.066;8.540;2022-10-16T14:02:50;2.05;;;1.10;;
21860;SDS011;11095;48.066;8.540;2022-10-16T14:05:28;1.48;;;0.90;;
21860;SDS011;11095;48.066;8.540;2022-10-16T14:07:54;3.05;;;1.05;;
21860;SDS011;11095;48.066;8.540;2022-10-16T14:12:59;1.90;;;0.90;;
21860;SDS011;11095;48.066;8.540;2022-10-16T14:15:27;1.27;;;0.98;;
21860;SDS011;11095;48.066;8.540;2022-10-16T14:17:56;0.95;;;0.85;;
21860;SDS011;11095;48.066;8.540;2022-10-16T14:20:27;2.15;;;0.90;;
21860;SDS011;11095;48.066;8.540;2022-10-16T14:22:59;1.48;;;1.00;;
21860;SDS011;11095;48.066;8.540;2022-10-16T14:25:31;1.92;;;0.90;;
21860;SDS011;11095;48.066;8.540;2022-10-16T14:30:35;1.15;;;0.90;;
21860;SDS011;11095;48.066;8.540;2022-10-16T14:33:02;1.25;;;0.95;;
21860;SDS011;11095;48.066;8.540;2022-10-16T14:35:34;2.22;;;1.17;;
21860;SDS011;11095;48.066;8.540;2022-10-16T14:38:02;2.15;;;1.20;;
21860;SDS011;11095;48.066;8.540;2022-10-16T14:40:33;1.50;;;1.10;;
21860;SDS011;11095;48.066;8.540;2022-10-16T14:43:01;2.20;;;0.80;;
21860;SDS011;11095;48.066;8.540;2022-10-16T14:45:30;1.65;;;1.00;;
21860;SDS011;11095;48.066;8.540;2022-10-16T14:48:02;2.55;;;1.13;;
21860;SDS011;11095;48.066;8.540;2022-10-16T14:50:31;1.13;;;0.95;;
21860;SDS011;11095;48.066;8.540;2022-10-16T14:52:56;2.97;;;0.90;;
21860;SDS011;11095;48.066;8.540;2022-10-16T14:55:23;0.88;;;0.80;;
21860;SDS011;11095;48.066;8.540;2022-10-16T14:57:50;1.52;;;0.90;;
21860;SDS011;11095;48.066;8.540;2022-10-16T15:00:17;1.88;;;0.80;;
21860;SDS011;11095;48.066;8.540;2022-10-16T15:02:46;2.05;;;1.00;;
21860;SDS011;11095;48.066;8.540;2022-10-16T15:05:24;1.48;;;0.70;;
21860;SDS011;11095;48.066;8.540;2022-10-16T15:07:51;1.23;;;0.80;;
21860;SDS011;11095;48.066;8.540;2022-10-16T15:10:21;1.48;;;0.80;;
21860;SDS011;11095;48.066;8.540;2022-10-16T15:12:49;2.00;;;0.80;;
21860;SDS011;11095;48.066;8.540;2022-10-16T15:18:00;2.08;;;0.70;;
21860;SDS011;11095;48.066;8.540;2022-10-16T15:20:27;1.58;;;0.80;;
21860;SDS011;11095;48.066;8.540;2022-10-16T15:23:01;0.88;;;0.68;;
21860;SDS011;11095;48.066;8.540;2022-10-16T15:25:38;1.33;;;0.80;;
21860;SDS011;11095;48.066;8.540;2022-10-16T15:28:07;2.28;;;1.00;;
21860;SDS011;11095;48.066;8.540;2022-10-16T15:30:33;1.58;;;1.00;;
21860;SDS011;11095;48.066;8.540;2022-10-16T15:33:00;1.42;;;0.80;;
21860;SDS011;11095;48.066;8.540;2022-10-16T15:35:27;2.55;;;1.10;;
21860;SDS011;11095;48.066;8.540;2022-10-16T15:37:52;1.17;;;1.00;;
21860;SDS011;11095;48.066;8.540;2022-10-16T15:40:19;1.60;;;0.90;;
21860;SDS011;11095;48.066;8.540;2022-10-16T15:42:45;2.05;;;0.80;;
21860;SDS011;11095;48.066;8.540;2022-10-16T15:45:11;1.10;;;0.75;;
21860;SDS011;11095;48.066;8.540;2022-10-16T15:47:37;1.17;;;0.80;;
21860;SDS011;11095;48.066;8.540;2022-10-16T15:50:04;1.00;;;0.90;;
21860;SDS011;11095;48.066;8.540;2022-10-16T15:52:30;1.50;;;1.00;;
21860;SDS011;11095;48.066;8.540;2022-10-16T15:54:57;1.58;;;0.70;;
21860;SDS011;11095;48.066;8.540;2022-10-16T15:57:23;4.05;;;0.93;;
21860;SDS011;11095;48.066;8.540;2022-10-16T15:59:49;1.77;;;1.00;;
21860;SDS011;11095;48.066;8.540;2022-10-16T16:02:15;3.67;;;1.10;;
21860;SDS011;11095;48.066;8.540;2022-10-16T16:04:41;1.27;;;1.10;;
21860;SDS011;11095;48.066;8.540;2022-10-16T16:07:06;1.90;;;1.15;;
21860;SDS011;11095;48.066;8.540;2022-10-16T16:09:33;2.88;;;0.95;;
21860;SDS011;11095;48.066;8.540;2022-10-16T16:11:59;1.38;;;0.95;;
21860;SDS011;11095;48.066;8.540;2022-10-16T16:14:26;1.17;;;0.70;;
21860;SDS011;11095;48.066;8.540;2022-10-16T16:16:53;1.30;;;0.90;;
21860;SDS011;11095;48.066;8.540;2022-10-16T16:19:19;1.55;;;0.90;;
21860;SDS011;11095;48.066;8.540;2022-10-16T16:21:46;2.75;;;1.30;;
21860;SDS011;11095;48.066;8.540;2022-10-16T16:24:12;1.83;;;1.00;;
21860;SDS011;11095;48.066;8.540;2022-10-16T16:26:38;2.28;;;1.20;;
21860;SDS011;11095;48.066;8.540;2022-10-16T16:31:40;1.65;;;0.90;;
21860;SDS011;11095;48.066;8.540;2022-10-16T16:34:07;1.13;;;1.00;;
21860;SDS011;11095;48.066;8.540;2022-10-16T16:36:33;1.70;;;0.88;;
21860;SDS011;11095;48.066;8.540;2022-10-16T16:38:59;2.15;;;0.90;;
21860;SDS011;11095;48.066;8.540;2022-10-16T16:41:26;2.33;;;1.08;;
21860;SDS011;11095;48.066;8.540;2022-10-16T16:43:54;1.40;;;0.95;;
21860;SDS011;11095;48.066;8.540;2022-10-16T16:46:20;1.65;;;1.08;;
21860;SDS011;11095;48.066;8.540;2022-10-16T16:48:46;1.30;;;0.88;;
21860;SDS011;11095;48.066;8.540;2022-10-16T16:51:13;1.58;;;1.13;;
21860;SDS011;11095;48.066;8.540;2022-10-16T16:53:44;1.20;;;1.10;;
21860;SDS011;11095;48.066;8.540;2022-10-16T16:56:13;1.95;;;1.02;;
21860;SDS011;11095;48.066;8.540;2022-10-16T16:58:39;1.17;;;1.08;;
21860;SDS011;11095;48.066;8.540;2022-10-16T17:01:05;1.00;;;0.90;;
21860;SDS011;11095;48.066;8.540;2022-10-16T17:03:32;1.00;;;0.90;;
21860;SDS011;11095;48.066;8.540;2022-10-16T17:06:00;1.40;;;1.30;;
21860;SDS011;11095;48.066;8.540;2022-10-16T17:08:31;2.53;;;1.60;;
21860;SDS011;11095;48.066;8.540;2022-10-16T17:10:58;1.98;;;1.50;;
21860;SDS011;11095;48.066;8.540;2022-10-16T17:13:24;1.70;;;1.60;;
21860;SDS011;11095;48.066;8.540;2022-10-16T17:15:51;1.77;;;1.50;;
21860;SDS011;11095;48.066;8.540;2022-10-16T17:18:18;1.70;;;1.60;;
21860;SDS011;11095;48.066;8.540;2022-10-16T17:20:46;5.05;;;1.90;;
21860;SDS011;11095;48.066;8.540;2022-10-16T17:23:12;3.67;;;2.20;;